Sacramento, California
Current Conditions -  °F | °C
As of 12:53 AM on Saturday 25 Oct 2014 (Local Time) from KSAC Reporting Station
Clear Clear  
Wind Chill: 62°   Ceiling: Unl
Heat Index: 62°   Visibility: 10mi
Dew Point: 55°   Wind: 3mph
Humidity: 78%   Direction: 150°SSE
Pressure: 29.91"   Gusts: NA
Location:  38.58°N, 121.49°W
Report Text: KSAC 250753Z AUTO 15003KT 10SM CLR 17/13 A2991 RMK AO2 SLP129 T01670128 402440106
Loading
Personal Weather Stations






























Interactive Weather Map
Tropical Storm Tracking
New forecast layout! Learn more

10-Day Weather Forecast

Advertisements
Track Severe Weather on mobile